createdAt,value
2023-05-01T00:00:52.031Z,4.57
2023-05-01T00:03:37.599Z,4.40
2023-05-01T00:06:23.438Z,4.72
2023-05-01T00:09:09.477Z,4.53
2023-05-01T00:11:54.887Z,3.72
2023-05-01T00:14:40.298Z,3.33
2023-05-01T00:17:25.987Z,3.60
2023-05-01T00:20:11.288Z,3.20
2023-05-01T00:22:57.733Z,3.25
2023-05-01T00:25:43.081Z,3.70
2023-05-01T00:28:28.551Z,2.85
2023-05-01T00:31:13.913Z,3.42
2023-05-01T00:33:59.301Z,3.65
2023-05-01T00:36:44.662Z,3.05
2023-05-01T00:39:29.916Z,3.55
2023-05-01T00:42:15.591Z,3.38
2023-05-01T00:45:00.674Z,4.35
2023-05-01T00:47:47.006Z,3.65
2023-05-01T00:50:32.648Z,4.35
2023-05-01T00:53:18.325Z,4.13
2023-05-01T00:56:04.207Z,4.20
2023-05-01T00:58:53.639Z,5.90
2023-05-01T01:01:38.927Z,5.25
2023-05-01T01:04:24.335Z,6.10
2023-05-01T01:07:31.917Z,5.18
2023-05-01T01:10:30.783Z,4.57
2023-05-01T01:13:58.777Z,4.63
2023-05-01T01:16:56.604Z,5.15
2023-05-01T01:20:10.940Z,3.58
2023-05-01T01:23:01.756Z,3.45
2023-05-01T01:26:03.541Z,3.90
2023-05-01T01:29:13.281Z,3.45
2023-05-01T01:32:13.588Z,3.17
2023-05-01T01:35:04.714Z,3.50
2023-05-01T01:38:00.489Z,3.80
2023-05-01T01:41:01.210Z,3.35
2023-05-01T01:43:52.473Z,4.13
2023-05-01T01:46:41.150Z,4.65
2023-05-01T01:49:29.413Z,3.85
2023-05-01T01:52:17.075Z,4.03
2023-05-01T01:55:13.259Z,4.00
2023-05-01T01:57:59.480Z,3.20
2023-05-01T02:00:46.014Z,3.35
2023-05-01T02:03:32.952Z,3.55
2023-05-01T02:06:19.198Z,3.47
2023-05-01T02:09:06.564Z,3.90
2023-05-01T02:11:53.438Z,3.53
2023-05-01T02:14:41.160Z,4.35
2023-05-01T02:17:28.119Z,4.40
2023-05-01T02:20:14.202Z,4.80
2023-05-01T02:23:00.498Z,5.75
2023-05-01T02:25:49.013Z,5.40
2023-05-01T02:28:35.443Z,4.63
2023-05-01T02:31:21.995Z,5.53
2023-05-01T02:34:07.068Z,3.75
2023-05-01T02:36:52.304Z,3.55
2023-05-01T02:39:38.993Z,2.88
2023-05-01T02:42:25.696Z,3.55
2023-05-01T02:45:20.497Z,3.70
2023-05-01T02:48:07.921Z,3.50
2023-05-01T02:50:55.514Z,3.03
2023-05-01T02:53:40.954Z,3.17
2023-05-01T02:56:29.435Z,3.58
2023-05-01T02:59:14.626Z,2.92
2023-05-01T03:02:00.440Z,2.90
2023-05-01T03:04:45.558Z,3.05
2023-05-01T03:07:35.080Z,2.88
2023-05-01T03:10:20.976Z,3.25
2023-05-01T03:13:06.135Z,2.92
2023-05-01T03:15:51.590Z,2.80
2023-05-01T03:18:36.965Z,2.97
2023-05-01T03:21:22.695Z,3.28
2023-05-01T03:24:08.008Z,3.67
2023-05-01T03:26:53.032Z,3.38
2023-05-01T03:29:38.666Z,4.15
2023-05-01T03:32:23.775Z,6.30
2023-05-01T03:35:09.798Z,7.03
2023-05-01T03:37:55.539Z,6.45
2023-05-01T03:40:40.989Z,5.35
2023-05-01T03:43:26.501Z,3.95
2023-05-01T03:46:11.784Z,3.25
2023-05-01T03:48:58.396Z,3.65
2023-05-01T03:51:43.598Z,3.53
2023-05-01T03:54:28.945Z,5.15
2023-05-01T03:57:14.725Z,6.00
2023-05-01T03:59:59.935Z,7.85
2023-05-01T04:02:45.139Z,8.38
2023-05-01T04:05:30.699Z,8.82
2023-05-01T04:08:15.902Z,7.88
2023-05-01T04:11:01.289Z,7.72
2023-05-01T04:13:46.721Z,8.23
2023-05-01T04:16:32.409Z,6.45
2023-05-01T04:19:17.785Z,6.65
2023-05-01T04:22:03.740Z,6.28
2023-05-01T04:24:49.097Z,5.78
2023-05-01T04:27:34.291Z,6.60
2023-05-01T04:30:19.876Z,4.15
2023-05-01T04:33:11.433Z,3.85
2023-05-01T04:35:56.950Z,3.83
2023-05-01T04:38:42.452Z,3.47
2023-05-01T04:41:29.312Z,3.33
2023-05-01T04:44:15.325Z,3.17
2023-05-01T04:47:04.639Z,3.20
2023-05-01T04:49:50.011Z,3.92
2023-05-01T04:52:35.961Z,4.07
2023-05-01T04:55:21.426Z,8.13
2023-05-01T04:58:06.763Z,7.25
2023-05-01T05:00:52.094Z,6.40
2023-05-01T05:03:37.726Z,6.80
2023-05-01T05:06:22.990Z,7.20
2023-05-01T05:09:08.474Z,6.95
2023-05-01T05:11:53.793Z,6.85
2023-05-01T05:14:39.270Z,6.15
2023-05-01T05:17:24.700Z,7.18
2023-05-01T05:20:10.415Z,6.03
2023-05-01T05:22:55.912Z,6.20
2023-05-01T05:25:41.427Z,6.30
2023-05-01T05:28:27.083Z,5.88
2023-05-01T05:31:12.643Z,6.05
2023-05-01T05:33:58.107Z,6.13
2023-05-01T05:36:43.674Z,6.55
2023-05-01T05:39:28.869Z,6.60
2023-05-01T05:42:14.225Z,5.93
2023-05-01T05:44:59.553Z,6.95
2023-05-01T05:47:45.045Z,8.00
2023-05-01T05:50:30.375Z,6.50
2023-05-01T05:53:15.695Z,7.03
2023-05-01T05:56:01.376Z,7.38
2023-05-01T05:58:46.425Z,6.72
2023-05-01T06:01:32.372Z,7.18
2023-05-01T06:04:17.794Z,7.35
2023-05-01T06:07:03.753Z,6.55
2023-05-01T06:09:48.860Z,7.22
2023-05-01T06:12:36.322Z,6.80
2023-05-01T06:15:26.000Z,5.53
2023-05-01T06:18:12.020Z,6.47
2023-05-01T06:20:58.324Z,6.30
2023-05-01T06:23:43.677Z,6.53
2023-05-01T06:26:29.281Z,5.88
2023-05-01T06:29:14.511Z,6.43
2023-05-01T06:32:00.218Z,5.85
2023-05-01T06:34:45.806Z,6.65
2023-05-01T06:37:31.410Z,6.30
2023-05-01T06:40:16.543Z,6.45
2023-05-01T06:43:05.482Z,5.93
2023-05-01T06:45:50.880Z,6.32
2023-05-01T06:48:36.340Z,6.38
2023-05-01T06:51:21.570Z,5.75
2023-05-01T06:54:07.261Z,6.28
2023-05-01T06:56:53.613Z,5.90
2023-05-01T06:59:38.764Z,6.95
2023-05-01T07:02:24.458Z,5.88
2023-05-01T07:05:09.800Z,4.32
2023-05-01T07:08:01.189Z,5.32
2023-05-01T07:10:47.030Z,6.15
2023-05-01T07:13:32.072Z,5.60
2023-05-01T07:16:17.433Z,4.90
2023-05-01T07:19:02.789Z,5.53
2023-05-01T07:21:48.141Z,5.88
2023-05-01T07:24:33.434Z,5.72
2023-05-01T07:27:18.765Z,5.82
2023-05-01T07:30:05.271Z,5.65
2023-05-01T07:32:50.609Z,5.70
2023-05-01T07:35:36.017Z,6.03
2023-05-01T07:38:21.469Z,5.32
2023-05-01T07:41:06.825Z,5.53
2023-05-01T07:43:52.113Z,5.20
2023-05-01T07:46:37.696Z,5.03
2023-05-01T07:49:23.730Z,5.30
2023-05-01T07:52:09.061Z,4.80
2023-05-01T07:54:54.473Z,5.72
2023-05-01T07:57:39.860Z,4.72
2023-05-01T08:00:25.508Z,5.13
2023-05-01T08:03:11.528Z,5.00
2023-05-01T08:05:57.357Z,4.80
2023-05-01T08:08:42.980Z,4.50
2023-05-01T08:11:29.829Z,3.90
2023-05-01T08:14:17.538Z,4.10
2023-05-01T08:17:02.713Z,3.55
2023-05-01T08:19:48.080Z,3.53
2023-05-01T08:22:33.611Z,3.95
2023-05-01T08:25:19.183Z,4.32
2023-05-01T08:28:04.536Z,4.70
2023-05-01T08:30:49.829Z,4.97
2023-05-01T08:33:35.279Z,3.58
2023-05-01T08:36:21.508Z,3.80
2023-05-01T08:39:06.633Z,3.67
2023-05-01T08:41:52.865Z,3.63
2023-05-01T08:44:42.079Z,3.42
2023-05-01T08:47:30.436Z,3.33
2023-05-01T08:50:18.054Z,3.45
2023-05-01T08:53:04.687Z,3.40
2023-05-01T08:55:52.115Z,3.33
2023-05-01T08:58:37.946Z,3.20
2023-05-01T09:01:24.864Z,3.33
2023-05-01T09:04:11.879Z,3.47
2023-05-01T09:06:57.808Z,3.38
2023-05-01T09:09:44.105Z,3.10
2023-05-01T09:12:30.043Z,3.60
2023-05-01T09:15:15.725Z,2.80
2023-05-01T09:18:03.630Z,3.28
2023-05-01T09:20:49.555Z,3.83
2023-05-01T09:23:37.445Z,3.40
2023-05-01T09:26:23.658Z,3.30
2023-05-01T09:29:10.235Z,3.03
2023-05-01T09:31:58.113Z,3.50
2023-05-01T09:34:44.683Z,3.10
2023-05-01T09:37:31.819Z,3.00
2023-05-01T09:40:16.865Z,2.60
2023-05-01T09:43:02.570Z,2.95
2023-05-01T09:46:07.303Z,2.85
2023-05-01T09:48:58.622Z,2.80
2023-05-01T09:51:44.709Z,2.53
2023-05-01T09:54:30.236Z,2.50
2023-05-01T09:57:15.557Z,2.40
2023-05-01T10:00:08.721Z,2.63
2023-05-01T10:02:54.414Z,1.95
2023-05-01T10:05:44.373Z,2.60
2023-05-01T10:08:48.993Z,2.35
2023-05-01T10:11:56.002Z,2.38
2023-05-01T10:14:54.896Z,2.30
2023-05-01T10:17:42.056Z,2.55
2023-05-01T10:20:27.055Z,2.03
2023-05-01T10:23:13.050Z,2.67
2023-05-01T10:26:02.984Z,1.90
2023-05-01T10:28:49.895Z,2.42
2023-05-01T10:31:35.846Z,2.50
2023-05-01T10:34:24.149Z,2.67
2023-05-01T10:37:18.793Z,2.90
2023-05-01T10:40:46.112Z,2.53
2023-05-01T10:43:31.647Z,2.10
2023-05-01T10:46:18.983Z,2.20
2023-05-01T10:49:04.309Z,1.95
2023-05-01T10:51:58.690Z,2.65
2023-05-01T10:54:44.059Z,2.63
2023-05-01T10:57:44.282Z,2.30
2023-05-01T11:00:30.070Z,2.90
2023-05-01T11:03:21.120Z,2.45
2023-05-01T11:06:07.451Z,2.43
2023-05-01T11:08:53.379Z,2.63
2023-05-01T11:11:45.324Z,2.60
2023-05-01T11:14:57.058Z,3.03
2023-05-01T11:17:43.146Z,3.05
2023-05-01T11:20:29.143Z,3.00
2023-05-01T11:23:17.648Z,3.30
2023-05-01T11:26:04.900Z,2.95
2023-05-01T11:28:54.292Z,3.15
2023-05-01T11:31:39.789Z,3.40
2023-05-01T11:34:26.161Z,2.58
2023-05-01T11:37:11.496Z,3.22
2023-05-01T11:39:56.915Z,2.83
2023-05-01T11:42:42.206Z,3.75
2023-05-01T11:45:27.634Z,2.60
2023-05-01T11:48:18.973Z,3.17
2023-05-01T11:51:13.003Z,2.88
2023-05-01T11:54:09.543Z,3.13
2023-05-01T11:57:01.014Z,3.40
2023-05-01T11:59:48.050Z,3.13
2023-05-01T12:02:33.751Z,2.80
2023-05-01T12:05:19.178Z,3.15
2023-05-01T12:08:20.882Z,3.78
2023-05-01T12:11:07.150Z,2.78
2023-05-01T12:13:53.413Z,2.75
2023-05-01T12:16:40.575Z,3.03
2023-05-01T12:19:26.414Z,2.90
2023-05-01T12:22:11.664Z,2.83
2023-05-01T12:24:57.331Z,2.10
2023-05-01T12:27:44.114Z,2.65
2023-05-01T12:30:29.840Z,2.50
2023-05-01T12:33:16.973Z,3.03
2023-05-01T12:36:11.737Z,3.25
2023-05-01T12:39:03.523Z,2.60
2023-05-01T12:41:49.650Z,2.30
2023-05-01T12:44:35.384Z,2.53
2023-05-01T12:47:20.474Z,2.53
2023-05-01T12:50:07.498Z,2.75
2023-05-01T12:52:53.108Z,2.60
2023-05-01T12:55:46.809Z,3.08
2023-05-01T12:58:38.732Z,2.33
2023-05-01T13:01:29.752Z,2.50
2023-05-01T13:04:22.641Z,2.80
2023-05-01T13:07:12.620Z,2.20
2023-05-01T13:10:00.302Z,2.42
2023-05-01T13:12:46.404Z,2.47
2023-05-01T13:15:31.772Z,2.67
2023-05-01T13:18:17.104Z,2.72
2023-05-01T13:21:10.308Z,2.67
2023-05-01T13:24:00.634Z,2.50
2023-05-01T13:26:46.003Z,2.63
2023-05-01T13:29:31.959Z,2.97
2023-05-01T13:32:17.932Z,2.83
2023-05-01T13:35:03.684Z,3.17
2023-05-01T13:37:48.798Z,3.22
2023-05-01T13:40:34.517Z,2.70
2023-05-01T13:43:22.283Z,3.13
2023-05-01T13:46:07.706Z,2.80
2023-05-01T13:48:53.219Z,3.03
2023-05-01T13:51:42.704Z,3.05
2023-05-01T13:54:27.978Z,4.63
2023-05-01T13:57:14.468Z,4.15
2023-05-01T13:59:59.772Z,4.15
2023-05-01T14:02:48.388Z,4.40
2023-05-01T14:05:33.872Z,4.75
2023-05-01T14:08:26.836Z,5.18
2023-05-01T14:11:12.431Z,5.93
2023-05-01T14:13:59.650Z,5.15
2023-05-01T14:16:51.036Z,5.65
2023-05-01T14:19:36.405Z,5.10
2023-05-01T14:22:22.270Z,5.82
2023-05-01T14:25:23.737Z,6.40
2023-05-01T14:28:08.961Z,6.18
2023-05-01T14:30:54.790Z,6.50
2023-05-01T14:33:42.507Z,6.07
2023-05-01T14:36:30.924Z,5.90
2023-05-01T14:39:17.265Z,6.43
2023-05-01T14:42:02.689Z,6.68
2023-05-01T14:44:47.692Z,6.90
2023-05-01T14:47:33.317Z,6.07
2023-05-01T14:50:20.774Z,5.93
2023-05-01T14:53:06.461Z,6.35
2023-05-01T14:55:54.020Z,6.22
2023-05-01T14:58:39.237Z,5.85
2023-05-01T15:01:24.693Z,5.93
2023-05-01T15:04:11.779Z,5.97
2023-05-01T15:06:57.286Z,5.50
2023-05-01T15:09:42.981Z,6.40
2023-05-01T15:12:28.282Z,5.93
2023-05-01T15:15:13.810Z,4.95
2023-05-01T15:17:59.326Z,5.07
2023-05-01T15:20:44.491Z,5.07
2023-05-01T15:23:31.592Z,6.43
2023-05-01T15:26:17.100Z,5.95
2023-05-01T15:29:02.421Z,5.22
2023-05-01T15:31:50.596Z,4.70
2023-05-01T15:34:42.650Z,4.40
2023-05-01T15:37:28.202Z,4.80
2023-05-01T15:40:13.546Z,4.60
2023-05-01T15:42:59.224Z,6.22
2023-05-01T15:45:44.836Z,4.95
2023-05-01T15:48:30.365Z,5.20
2023-05-01T15:51:15.849Z,5.15
2023-05-01T15:54:02.678Z,5.13
2023-05-01T15:56:48.136Z,5.47
2023-05-01T15:59:33.498Z,5.30
2023-05-01T16:02:19.013Z,5.07
2023-05-01T16:05:05.158Z,5.47
2023-05-01T16:07:55.087Z,4.53
2023-05-01T16:10:41.007Z,4.13
2023-05-01T16:13:26.644Z,5.10
2023-05-01T16:16:14.453Z,4.50
2023-05-01T16:19:00.477Z,4.40
2023-05-01T16:21:45.949Z,3.97
2023-05-01T16:24:34.603Z,4.15
2023-05-01T16:27:19.751Z,4.47
2023-05-01T16:30:06.452Z,4.05
2023-05-01T16:32:51.783Z,4.30
2023-05-01T16:35:37.944Z,4.28
2023-05-01T16:38:23.281Z,4.43
2023-05-01T16:41:08.776Z,4.53
2023-05-01T16:43:59.222Z,4.95
2023-05-01T16:46:56.008Z,4.35
2023-05-01T16:49:46.515Z,4.38
2023-05-01T16:52:32.005Z,4.18
2023-05-01T16:55:17.763Z,4.53
2023-05-01T16:58:02.792Z,4.03
2023-05-01T17:00:48.216Z,4.35
2023-05-01T17:03:34.932Z,5.13
2023-05-01T17:06:20.080Z,4.63
2023-05-01T17:09:06.376Z,5.13
2023-05-01T17:11:51.851Z,4.25
2023-05-01T17:14:37.249Z,4.80
2023-05-01T17:17:22.793Z,5.03
2023-05-01T17:20:08.944Z,4.82
2023-05-01T17:22:54.615Z,5.15
2023-05-01T17:25:39.919Z,4.47
2023-05-01T17:28:25.345Z,4.43
2023-05-01T17:31:10.778Z,5.53
2023-05-01T17:33:56.333Z,5.30
2023-05-01T17:36:41.688Z,4.63
2023-05-01T17:39:28.119Z,4.60
2023-05-01T17:42:14.592Z,4.90
2023-05-01T17:44:59.801Z,4.90
2023-05-01T17:47:46.814Z,4.60
2023-05-01T17:50:33.881Z,4.78
2023-05-01T17:53:20.041Z,4.80
2023-05-01T17:56:05.384Z,5.05
2023-05-01T17:58:50.935Z,5.63
2023-05-01T18:01:36.460Z,5.20
2023-05-01T18:04:22.448Z,4.53
2023-05-01T18:07:08.170Z,4.70
2023-05-01T18:09:54.190Z,4.80
2023-05-01T18:12:40.032Z,4.90
2023-05-01T18:15:26.456Z,4.80
2023-05-01T18:18:12.971Z,4.43
2023-05-01T18:20:59.685Z,4.65
2023-05-01T18:23:48.437Z,4.50
2023-05-01T18:26:35.440Z,4.70
2023-05-01T18:29:22.950Z,4.93
2023-05-01T18:32:12.022Z,4.43
2023-05-01T18:34:58.456Z,4.63
2023-05-01T18:37:44.866Z,4.80
2023-05-01T18:40:31.556Z,4.63
2023-05-01T18:43:17.402Z,5.57
2023-05-01T18:46:03.067Z,5.20
2023-05-01T18:48:48.184Z,4.53
2023-05-01T18:51:33.492Z,4.90
2023-05-01T18:54:19.025Z,4.88
2023-05-01T18:57:04.319Z,4.65
2023-05-01T18:59:49.648Z,4.75
2023-05-01T19:02:35.062Z,4.97
2023-05-01T19:05:22.355Z,5.20
2023-05-01T19:08:09.000Z,5.10
2023-05-01T19:10:54.417Z,5.38
2023-05-01T19:13:39.909Z,5.90
2023-05-01T19:16:26.206Z,5.55
2023-05-01T19:19:11.761Z,4.68
2023-05-01T19:21:57.193Z,4.32
2023-05-01T19:24:42.585Z,4.85
2023-05-01T19:27:28.134Z,5.05
2023-05-01T19:30:13.511Z,4.78
2023-05-01T19:32:59.840Z,4.95
2023-05-01T19:35:45.512Z,4.78
2023-05-01T19:38:31.053Z,4.63
2023-05-01T19:41:16.559Z,4.65
2023-05-01T19:44:01.937Z,5.28
2023-05-01T19:46:47.301Z,5.07
2023-05-01T19:49:32.999Z,4.63
2023-05-01T19:52:19.615Z,4.50
2023-05-01T19:55:05.586Z,5.10
2023-05-01T19:57:52.111Z,5.15
2023-05-01T20:00:37.268Z,5.25
2023-05-01T20:03:23.091Z,5.07
2023-05-01T20:06:09.075Z,5.38
2023-05-01T20:08:54.683Z,5.38
2023-05-01T20:11:40.152Z,4.93
2023-05-01T20:14:25.899Z,5.03
2023-05-01T20:17:11.455Z,5.30
2023-05-01T20:19:57.126Z,5.10
2023-05-01T20:22:43.121Z,4.90
2023-05-01T20:25:28.374Z,5.28
2023-05-01T20:28:14.995Z,5.20
2023-05-01T20:31:00.580Z,5.40
2023-05-01T20:33:46.286Z,5.90
2023-05-01T20:36:32.078Z,5.28
2023-05-01T20:39:17.475Z,5.32
2023-05-01T20:42:02.852Z,5.60
2023-05-01T20:44:48.281Z,5.88
2023-05-01T20:47:34.190Z,4.90
2023-05-01T20:50:19.810Z,5.20
2023-05-01T20:53:05.091Z,5.63
2023-05-01T20:55:50.469Z,5.60
2023-05-01T20:58:36.039Z,5.13
2023-05-01T21:01:21.598Z,5.38
2023-05-01T21:04:07.314Z,5.03
2023-05-01T21:06:53.139Z,4.72
2023-05-01T21:09:44.813Z,5.05
2023-05-01T21:12:29.920Z,4.88
2023-05-01T21:15:15.386Z,4.60
2023-05-01T21:18:01.571Z,4.45
2023-05-01T21:20:48.597Z,4.57
2023-05-01T21:23:33.652Z,4.85
2023-05-01T21:26:19.660Z,5.18
2023-05-01T21:29:05.081Z,4.20
2023-05-01T21:31:50.699Z,4.45
2023-05-01T21:34:36.163Z,4.90
2023-05-01T21:37:21.726Z,4.68
2023-05-01T21:40:12.445Z,4.95
2023-05-01T21:42:57.684Z,5.10
2023-05-01T21:45:44.191Z,4.50
2023-05-01T21:48:34.335Z,4.72
2023-05-01T21:51:27.254Z,4.90
2023-05-01T21:54:12.620Z,4.68
2023-05-01T21:56:59.840Z,4.60
2023-05-01T21:59:45.110Z,4.93
2023-05-01T22:03:01.591Z,4.90
2023-05-01T22:05:47.303Z,4.40
2023-05-01T22:08:32.742Z,4.85
2023-05-01T22:11:18.218Z,4.07
2023-05-01T22:14:03.530Z,3.55
2023-05-01T22:16:48.903Z,5.07
2023-05-01T22:19:34.156Z,4.90
2023-05-01T22:22:20.077Z,4.75
2023-05-01T22:25:06.431Z,5.30
2023-05-01T22:27:51.660Z,4.53
2023-05-01T22:30:37.420Z,4.55
2023-05-01T22:33:22.740Z,4.05
2023-05-01T22:36:08.147Z,4.72
2023-05-01T22:38:53.674Z,5.03
2023-05-01T22:41:39.149Z,4.47
2023-05-01T22:44:24.831Z,5.15
2023-05-01T22:47:10.321Z,5.13
2023-05-01T22:49:55.414Z,5.72
2023-05-01T22:52:40.816Z,4.85
2023-05-01T22:55:26.093Z,4.65
2023-05-01T22:58:11.406Z,5.20
2023-05-01T23:00:56.894Z,4.50
2023-05-01T23:03:42.260Z,5.20
2023-05-01T23:06:27.866Z,5.05
2023-05-01T23:09:13.506Z,5.22
2023-05-01T23:11:58.937Z,5.75
2023-05-01T23:14:46.059Z,6.68
2023-05-01T23:17:34.554Z,5.03
2023-05-01T23:20:24.434Z,5.35
2023-05-01T23:23:13.846Z,5.93
2023-05-01T23:25:59.014Z,5.85
2023-05-01T23:28:44.496Z,6.03
2023-05-01T23:31:29.969Z,5.25
2023-05-01T23:34:19.480Z,5.85
2023-05-01T23:37:04.589Z,6.32
2023-05-01T23:39:50.044Z,5.68
2023-05-01T23:42:37.618Z,5.28
2023-05-01T23:45:22.795Z,5.10
2023-05-01T23:48:08.429Z,5.30
2023-05-01T23:50:53.535Z,4.90
2023-05-01T23:53:38.883Z,5.10
2023-05-01T23:56:24.349Z,5.20
2023-05-01T23:59:09.660Z,5.72
